Hillman, Ohio
Current Conditions -  °F | °C
As of 1:55 AM on Saturday 20 Dec 2014 (Local Time) from KFGX Reporting Station
Overcast Overcast  
Wind Chill: -4°   Ceiling: 2500
Heat Index: -4°   Visibility: 7mi
Dew Point: -5°   Wind: 0mph
Humidity: 90%   Direction: NA
Pressure: 30.27"   Gusts: NA
Location:  38.8698°N, 83.9081°W
Report Text: KFGX 200655Z AUTO 00000KT 7SM OVC025 M04/M05 A3027 RMK AO2 T10381052
Loading
Personal Weather Stations






























Interactive Weather Map New forecast layout! Learn more

10-Day Weather Forecast

Advertisements
Track Severe Weather on mobile